createdAt,value
2023-04-16T00:01:37.546Z,98385.94
2023-04-16T00:06:41.164Z,98387.69
2023-04-16T00:11:44.384Z,98393.11
2023-04-16T00:16:47.987Z,98392.95
2023-04-16T00:21:51.625Z,98392.45
2023-04-16T00:26:54.829Z,98397.85
2023-04-16T00:31:58.134Z,98406.21
2023-04-16T00:37:02.054Z,98411.92
2023-04-16T00:42:05.807Z,98419.77
2023-04-16T00:47:09.265Z,98433.40
2023-04-16T00:52:13.148Z,98442.10
2023-04-16T00:57:17.952Z,98446.80
2023-04-16T01:02:21.491Z,98450.64
2023-04-16T01:07:26.991Z,98450.80
2023-04-16T01:12:30.859Z,98452.88
2023-04-16T01:17:34.072Z,98451.45
2023-04-16T01:22:37.324Z,98450.77
2023-04-16T01:27:40.599Z,98444.87
2023-04-16T01:32:43.951Z,98449.77
2023-04-16T01:37:47.215Z,98447.49
2023-04-16T01:42:51.885Z,98444.02
2023-04-16T01:47:55.441Z,98440.88
2023-04-16T01:52:58.698Z,98437.88
2023-04-16T01:58:02.591Z,98442.78
2023-04-16T02:03:08.783Z,98443.14
2023-04-16T02:08:12.171Z,98446.08
2023-04-16T02:13:17.252Z,98447.45
2023-04-16T02:18:22.340Z,98447.94
2023-04-16T02:23:26.220Z,98457.66
2023-04-16T02:28:30.498Z,98464.77
2023-04-16T02:33:33.950Z,98464.75
2023-04-16T02:38:39.276Z,98469.26
2023-04-16T02:43:42.769Z,98475.48
2023-04-16T02:48:46.011Z,98477.76
2023-04-16T02:53:49.307Z,98485.48
2023-04-16T02:58:53.017Z,98490.99
2023-04-16T03:03:56.721Z,98493.46
2023-04-16T03:09:00.038Z,98500.84
2023-04-16T03:14:03.330Z,98499.87
2023-04-16T03:19:06.682Z,98504.59
2023-04-16T03:24:09.856Z,98513.30
2023-04-16T03:29:13.864Z,98519.05
2023-04-16T03:34:18.271Z,98530.17
2023-04-16T03:39:22.214Z,98539.58
2023-04-16T03:44:25.454Z,98542.35
2023-04-16T03:49:28.640Z,98541.04
2023-04-16T03:54:35.894Z,98544.91
2023-04-16T03:59:52.019Z,98543.66
2023-04-16T04:04:56.324Z,98552.60
2023-04-16T04:10:01.538Z,98557.30
2023-04-16T04:15:05.440Z,98569.62
2023-04-16T04:20:09.115Z,98586.52
2023-04-16T04:25:13.362Z,98596.14
2023-04-16T04:30:16.954Z,98606.80
2023-04-16T04:35:20.712Z,98607.48
2023-04-16T04:40:25.360Z,98609.66
2023-04-16T04:45:31.684Z,98603.98
2023-04-16T04:50:37.034Z,98606.94
2023-04-16T04:55:41.221Z,98606.24
2023-04-16T05:00:45.278Z,98614.95
2023-04-16T05:05:48.494Z,98620.92
2023-04-16T05:10:51.674Z,98631.27
2023-04-16T05:15:54.976Z,98639.28
2023-04-16T05:20:58.124Z,98644.61
2023-04-16T05:26:01.941Z,98649.63
2023-04-16T05:31:05.349Z,98650.14
2023-04-16T05:36:08.856Z,98641.20
2023-04-16T05:41:12.068Z,98637.06
2023-04-16T05:46:15.525Z,98645.78
2023-04-16T05:51:19.735Z,98655.73
2023-04-16T05:56:23.600Z,98657.92
2023-04-16T06:01:26.908Z,98664.16
2023-04-16T06:06:30.629Z,98660.73
2023-04-16T06:11:36.355Z,98661.36
2023-04-16T06:16:39.794Z,98667.58
2023-04-16T06:21:42.957Z,98668.91
2023-04-16T06:26:46.529Z,98677.95
2023-04-16T06:31:50.025Z,98686.23
2023-04-16T06:36:54.647Z,98692.64
2023-04-16T06:41:57.756Z,98698.22
2023-04-16T06:47:01.134Z,98696.75
2023-04-16T06:52:05.811Z,98699.02
2023-04-16T06:57:11.607Z,98694.96
2023-04-16T07:02:16.149Z,98703.63
2023-04-16T07:07:19.566Z,98706.19
2023-04-16T07:12:23.033Z,98708.66
2023-04-16T07:17:26.428Z,98710.75
2023-04-16T07:22:29.690Z,98717.55
2023-04-16T07:27:32.804Z,98725.59
2023-04-16T07:32:36.403Z,98725.63
2023-04-16T07:37:39.562Z,98731.23
2023-04-16T07:42:43.373Z,98733.45
2023-04-16T07:47:46.801Z,98742.13
2023-04-16T07:52:49.897Z,98749.08
2023-04-16T07:57:53.042Z,98759.55
2023-04-16T08:02:56.229Z,98759.51
2023-04-16T08:07:59.640Z,98764.39
2023-04-16T08:13:02.828Z,98765.65
2023-04-16T08:18:07.294Z,98770.20
2023-04-16T08:23:10.577Z,98769.11
2023-04-16T08:28:13.734Z,98771.39
2023-04-16T08:33:17.003Z,98771.45
2023-04-16T08:38:20.242Z,98767.20
2023-04-16T08:43:24.355Z,98770.96
2023-04-16T08:48:31.198Z,98772.58
2023-04-16T08:53:44.626Z,98779.70
2023-04-16T08:58:49.353Z,98787.09
2023-04-16T09:03:53.656Z,98780.66
2023-04-16T09:08:58.448Z,98782.64
2023-04-16T09:14:02.021Z,98784.11
2023-04-16T09:19:05.552Z,98780.39
2023-04-16T09:24:09.980Z,98785.06
2023-04-16T09:29:33.597Z,98785.71
2023-04-16T09:35:01.228Z,98787.13
2023-04-16T09:40:05.395Z,98782.87
2023-04-16T09:45:08.689Z,98774.88
2023-04-16T09:50:18.226Z,98780.00
2023-04-16T09:55:28.014Z,98782.85
2023-04-16T10:00:31.744Z,98788.41
2023-04-16T10:05:35.408Z,98787.58
2023-04-16T10:10:38.602Z,98788.78
2023-04-16T10:15:41.953Z,98782.61
2023-04-16T10:20:45.626Z,98778.52
2023-04-16T10:25:50.093Z,98780.59
2023-04-16T10:30:54.074Z,98781.98
2023-04-16T10:36:27.339Z,98783.71
2023-04-16T10:41:32.906Z,98785.31
2023-04-16T10:46:41.122Z,98789.79
2023-04-16T10:51:53.348Z,98792.94
2023-04-16T10:56:58.566Z,98784.66
2023-04-16T11:02:07.518Z,98791.70
2023-04-16T11:07:19.609Z,98791.91
2023-04-16T11:12:30.813Z,98797.56
2023-04-16T11:17:38.365Z,98793.59
2023-04-16T11:22:42.483Z,98791.52
2023-04-16T11:27:45.594Z,98797.84
2023-04-16T11:32:48.718Z,98801.06
2023-04-16T11:37:56.899Z,98802.54
2023-04-16T11:43:16.628Z,98801.85
2023-04-16T11:48:19.808Z,98803.66
2023-04-16T11:53:22.963Z,98799.92
2023-04-16T11:58:26.348Z,98797.95
2023-04-16T12:03:43.531Z,98795.41
2023-04-16T12:08:47.088Z,98793.18
2023-04-16T12:14:12.642Z,98787.63
2023-04-16T12:19:15.773Z,98790.30
2023-04-16T12:24:24.361Z,98788.75
2023-04-16T12:29:30.106Z,98782.31
2023-04-16T12:34:49.168Z,98785.48
2023-04-16T12:39:52.945Z,98779.29
2023-04-16T12:44:56.155Z,98773.04
2023-04-16T12:49:59.423Z,98771.56
2023-04-16T12:55:03.075Z,98774.20
2023-04-16T13:00:08.177Z,98772.31
2023-04-16T13:05:11.692Z,98766.40
2023-04-16T13:10:14.993Z,98765.38
2023-04-16T13:15:18.233Z,98764.02
2023-04-16T13:20:23.891Z,98757.84
2023-04-16T13:25:27.625Z,98760.55
2023-04-16T13:30:31.953Z,98761.70
2023-04-16T13:35:35.977Z,98760.66
2023-04-16T13:40:39.310Z,98764.05
2023-04-16T13:45:42.396Z,98759.56
2023-04-16T13:50:45.525Z,98760.48
2023-04-16T13:55:49.827Z,98761.65
2023-04-16T14:00:53.446Z,98762.03
2023-04-16T14:05:56.621Z,98757.46
2023-04-16T14:10:59.819Z,98757.69
2023-04-16T14:16:03.283Z,98753.98
2023-04-16T14:21:06.530Z,98754.35
2023-04-16T14:26:09.669Z,98757.59
2023-04-16T14:31:12.903Z,98761.44
2023-04-16T14:36:16.807Z,98760.77
2023-04-16T14:41:21.198Z,98759.27
2023-04-16T14:46:25.314Z,98759.33
2023-04-16T14:51:28.393Z,98757.38
2023-04-16T14:56:32.304Z,98756.80
2023-04-16T15:01:36.396Z,98762.23
2023-04-16T15:06:40.028Z,98765.11
2023-04-16T15:11:43.419Z,98766.12
2023-04-16T15:16:48.042Z,98767.38
2023-04-16T15:21:51.903Z,98766.61
2023-04-16T15:26:55.047Z,98766.71
2023-04-16T15:31:58.274Z,98766.45
2023-04-16T15:37:02.012Z,98770.14
2023-04-16T15:42:07.412Z,98773.39
2023-04-16T15:47:11.100Z,98773.73
2023-04-16T15:52:14.815Z,98776.14
2023-04-16T15:57:18.030Z,98772.95
2023-04-16T16:02:21.370Z,98771.41
2023-04-16T16:07:25.508Z,98777.90
2023-04-16T16:12:29.135Z,98787.40
2023-04-16T16:17:33.042Z,98791.73
2023-04-16T16:22:38.415Z,98796.56
2023-04-16T16:27:42.321Z,98797.85
2023-04-16T16:32:45.554Z,98798.46
2023-04-16T16:37:48.785Z,98806.52
2023-04-16T16:42:51.934Z,98805.08
2023-04-16T16:47:56.726Z,98811.19
2023-04-16T16:53:00.590Z,98812.42
2023-04-16T16:58:03.878Z,98814.62
2023-04-16T17:03:07.239Z,98820.25
2023-04-16T17:08:10.513Z,98822.36
2023-04-16T17:13:15.301Z,98829.13
2023-04-16T17:18:21.671Z,98835.73
2023-04-16T17:23:24.930Z,98844.76
2023-04-16T17:28:28.084Z,98850.61
2023-04-16T17:33:31.333Z,98854.64
2023-04-16T17:38:35.899Z,98856.48
2023-04-16T17:43:39.181Z,98864.57
2023-04-16T17:48:44.128Z,98863.45
2023-04-16T17:53:47.336Z,98868.05
2023-04-16T17:58:50.496Z,98870.86
2023-04-16T18:03:54.033Z,98874.08
2023-04-16T18:08:57.573Z,98877.11
2023-04-16T18:14:00.956Z,98883.35
2023-04-16T18:19:04.150Z,98885.38
2023-04-16T18:24:07.673Z,98886.35
2023-04-16T18:29:12.377Z,98892.33
2023-04-16T18:34:16.447Z,98896.27
2023-04-16T18:39:19.804Z,98902.27
2023-04-16T18:44:24.493Z,98907.15
2023-04-16T18:49:27.691Z,98908.86
2023-04-16T18:54:30.921Z,98907.83
2023-04-16T18:59:34.214Z,98908.39
2023-04-16T19:04:39.394Z,98909.88
2023-04-16T19:09:42.590Z,98913.40
2023-04-16T19:14:45.868Z,98916.48
2023-04-16T19:19:49.186Z,98910.10
2023-04-16T19:24:52.454Z,98909.33
2023-04-16T19:29:55.638Z,98907.33
2023-04-16T19:34:58.867Z,98906.30
2023-04-16T19:40:02.313Z,98901.86
2023-04-16T19:45:06.585Z,98908.63
2023-04-16T19:50:10.870Z,98909.11
2023-04-16T19:55:14.351Z,98904.61
2023-04-16T20:00:18.254Z,98905.53
2023-04-16T20:05:21.370Z,98904.92
2023-04-16T20:10:24.620Z,98900.16
2023-04-16T20:15:27.945Z,98902.98
2023-04-16T20:20:31.458Z,98904.16
2023-04-16T20:25:34.588Z,98897.94
2023-04-16T20:30:40.862Z,98903.75
2023-04-16T20:35:44.072Z,98903.81
2023-04-16T20:40:47.273Z,98898.65
2023-04-16T20:45:50.470Z,98894.34
2023-04-16T20:50:58.648Z,98897.42
2023-04-16T20:56:01.803Z,98891.48
2023-04-16T21:01:06.309Z,98886.95
2023-04-16T21:06:09.470Z,98888.06
2023-04-16T21:11:13.330Z,98892.06
2023-04-16T21:16:16.572Z,98888.93
2023-04-16T21:21:20.382Z,98893.03
2023-04-16T21:26:24.405Z,98884.81
2023-04-16T21:31:27.709Z,98885.67
